Time;durP1;ratioP1;P1;durP2;ratioP2;P2;SDS_P1;SDS_P2;PMS_P1;PMS_P2;Temp;Humidity;BMP_temperature;BMP_pressure;BME280_temperature;BME280_humidity;BME280_pressure;Samples;Min_cycle;Max_cycle;Signal;HPM_P1;HPM_P2
2021/06/09 00:00:31;;;;;;;;;;;;;;;22.89;100.00;99611.78;5061913;28;19924;-64
2021/06/09 00:02:57;;;;;;;;;;;;;;;22.57;100.00;99603.63;5054863;28;20314;-63
2021/06/09 00:05:22;;;;;;;;;;;;;;;22.80;100.00;99609.00;5037018;28;19919;-64
2021/06/09 00:07:47;;;;;;;;;;;;;;;22.25;100.00;99598.06;5054036;28;20267;-64
2021/06/09 00:10:13;;;;;;;;;;;;;;;22.77;100.00;99599.56;5061144;28;19920;-64
2021/06/09 00:12:40;;;;;;;;;;;;;;;22.81;100.00;99590.53;5030402;28;19920;-63
2021/06/09 00:15:06;;;;;;;;;;;;;;;22.63;100.00;99591.88;5040630;28;19939;-64
2021/06/09 00:17:31;;;;;;;;;;;;;;;22.56;100.00;99591.47;5055510;28;19916;-64
2021/06/09 00:19:57;;;;;;;;;;;;;;;22.05;100.00;99587.16;5055580;28;20328;-63
2021/06/09 00:22:23;;;;;;;;;;;;;;;22.05;100.00;99591.56;5053877;28;19912;-63
2021/06/09 00:24:48;;;;;;;;;;;;;;;22.00;100.00;99591.88;5054712;28;19920;-64
2021/06/09 00:27:14;;;;;;;;;;;;;;;21.78;100.00;99589.06;5039439;28;20002;-64
2021/06/09 00:29:39;;;;;;;;;;;;;;;22.26;100.00;99594.50;5059439;28;19924;-64
2021/06/09 00:32:05;;;;;;;;;;;;;;;22.33;100.00;99583.47;5052656;28;19920;-63
2021/06/09 00:34:30;;;;;;;;;;;;;;;21.39;100.00;99598.69;5056488;28;20362;-64
2021/06/09 00:36:55;;;;;;;;;;;;;;;20.75;100.00;99603.78;5053622;28;19950;-65
2021/06/09 00:39:21;;;;;;;;;;;;;;;19.13;100.00;99600.47;5059238;28;19920;-65
2021/06/09 00:41:46;;;;;;;;;;;;;;;19.68;100.00;99595.53;5053157;28;19970;-65
2021/06/09 00:44:11;;;;;;;;;;;;;;;20.42;100.00;99595.34;5058427;28;20837;-65
2021/06/09 00:46:38;;;;;;;;;;;;;;;21.05;100.00;99593.94;5041308;28;19926;-65
2021/06/09 00:49:04;;;;;;;;;;;;;;;21.82;100.00;99601.03;5041286;28;19921;-65
2021/06/09 00:51:29;;;;;;;;;;;;;;;21.91;100.00;99597.78;5061988;28;20270;-65
2021/06/09 00:53:58;;;;;;;;;;;;;;;21.34;100.00;99598.16;5038371;28;19916;-65
2021/06/09 00:56:24;;;;;;;;;;;;;;;19.38;100.00;99609.50;5057285;28;19921;-65
2021/06/09 00:58:50;;;;;;;;;;;;;;;20.46;100.00;99599.44;5053152;28;20404;-65
2021/06/09 01:01:17;;;;;;;;;;;;;;;20.83;100.00;99597.09;5049041;28;19967;-65
2021/06/09 01:03:42;;;;;;;;;;;;;;;20.78;100.00;99596.56;5058477;28;20381;-65
2021/06/09 01:06:08;;;;;;;;;;;;;;;20.57;100.00;99593.56;5056111;28;19942;-65
2021/06/09 01:08:36;;;;;;;;;;;;;;;20.98;100.00;99591.78;5027180;28;20453;-65
2021/06/09 01:11:01;;;;;;;;;;;;;;;21.47;100.00;99593.81;5052828;28;19916;-65
2021/06/09 01:13:29;;;;;;;;;;;;;;;21.59;100.00;99585.09;5039002;28;19931;-64
2021/06/09 01:15:54;;;;;;;;;;;;;;;21.66;100.00;99588.97;5036315;28;19967;-64
2021/06/09 01:18:20;;;;;;;;;;;;;;;20.81;100.00;99582.44;5054453;28;19921;-64
2021/06/09 01:20:47;;;;;;;;;;;;;;;20.65;100.00;99583.41;5054084;28;20023;-63
2021/06/09 01:23:13;;;;;;;;;;;;;;;20.73;100.00;99580.31;5058630;28;19989;-63
2021/06/09 01:25:39;;;;;;;;;;;;;;;20.73;100.00;99579.47;5056231;28;19920;-63
2021/06/09 01:28:07;;;;;;;;;;;;;;;21.01;100.00;99589.00;5052252;28;19928;-64
2021/06/09 01:30:32;;;;;;;;;;;;;;;20.69;100.00;99586.69;5036604;28;19916;-64
2021/06/09 01:32:58;;;;;;;;;;;;;;;20.66;100.00;99587.75;5033395;28;19927;-64
2021/06/09 01:35:23;;;;;;;;;;;;;;;20.66;100.00;99584.25;5054985;28;20427;-64
2021/06/09 01:37:49;;;;;;;;;;;;;;;20.50;100.00;99584.38;5051576;28;20393;-63
2021/06/09 01:40:15;;;;;;;;;;;;;;;20.67;100.00;99585.94;5053041;28;19963;-63
2021/06/09 01:42:41;;;;;;;;;;;;;;;20.43;100.00;99581.28;5050571;28;19920;-64
2021/06/09 01:45:07;;;;;;;;;;;;;;;20.61;100.00;99578.50;5051499;28;19913;-63
2021/06/09 01:47:32;;;;;;;;;;;;;;;20.52;100.00;99581.66;5055312;28;19921;-64
2021/06/09 01:49:57;;;;;;;;;;;;;;;20.38;100.00;99580.75;5045718;28;20476;-63
2021/06/09 01:52:23;;;;;;;;;;;;;;;20.23;100.00;99579.97;5046517;28;19916;-63
2021/06/09 01:54:48;;;;;;;;;;;;;;;20.29;100.00;99570.03;5046801;28;19921;-63
2021/06/09 01:57:14;;;;;;;;;;;;;;;19.79;100.00;99574.84;5055522;28;19929;-63
2021/06/09 01:59:40;;;;;;;;;;;;;;;20.25;100.00;99579.84;5034322;28;20379;-63
2021/06/09 02:02:05;;;;;;;;;;;;;;;20.36;100.00;99572.16;5035193;28;19921;-63
2021/06/09 02:04:31;;;;;;;;;;;;;;;20.46;100.00;99578.50;5054348;28;20579;-63
2021/06/09 02:06:56;;;;;;;;;;;;;;;20.67;100.00;99576.31;5049792;28;19925;-64
2021/06/09 02:09:22;;;;;;;;;;;;;;;20.53;100.00;99578.13;5052577;28;19928;-63
2021/06/09 02:11:47;;;;;;;;;;;;;;;20.65;100.00;99578.19;5048753;28;19939;-63
2021/06/09 02:14:13;;;;;;;;;;;;;;;20.71;100.00;99576.97;5052775;28;19916;-63
2021/06/09 02:16:40;;;;;;;;;;;;;;;20.88;100.00;99573.25;5052242;28;20457;-63
2021/06/09 02:19:05;;;;;;;;;;;;;;;20.92;100.00;99573.88;5030572;28;19916;-64
2021/06/09 02:21:31;;;;;;;;;;;;;;;20.83;100.00;99575.31;5054669;28;19965;-63
2021/06/09 02:23:57;;;;;;;;;;;;;;;20.72;100.00;99575.19;5055271;28;19929;-63
2021/06/09 02:26:22;;;;;;;;;;;;;;;20.44;100.00;99569.91;5059427;28;19920;-63
2021/06/09 02:28:47;;;;;;;;;;;;;;;20.57;100.00;99570.00;5034863;28;19975;-64
2021/06/09 02:31:13;;;;;;;;;;;;;;;20.32;100.00;99567.22;5034755;28;19916;-63
2021/06/09 02:33:38;;;;;;;;;;;;;;;20.38;100.00;99569.47;5031510;28;19971;-63
2021/06/09 02:36:05;;;;;;;;;;;;;;;20.50;100.00;99570.44;5047018;28;19982;-63
2021/06/09 02:38:30;;;;;;;;;;;;;;;20.62;100.00;99567.09;5052412;28;19973;-64
2021/06/09 02:40:56;;;;;;;;;;;;;;;20.56;100.00;99563.09;5047080;28;19920;-64
2021/06/09 02:43:22;;;;;;;;;;;;;;;20.67;100.00;99562.41;5049660;28;19920;-63
2021/06/09 02:45:51;;;;;;;;;;;;;;;20.60;100.00;99563.75;5052714;28;19925;-64
2021/06/09 02:48:17;;;;;;;;;;;;;;;20.65;100.00;99561.66;5031397;28;20274;-64
2021/06/09 02:50:43;;;;;;;;;;;;;;;20.60;100.00;99563.75;5055047;28;19917;-63
2021/06/09 02:53:19;;;;;;;;;;;;;;;20.53;100.00;99565.03;5049286;28;19985;-63
2021/06/09 02:55:47;;;;;;;;;;;;;;;20.46;100.00;99564.59;5021832;28;19924;-64
2021/06/09 02:58:13;;;;;;;;;;;;;;;20.50;100.00;99552.97;5054663;28;19917;-63
2021/06/09 03:00:48;;;;;;;;;;;;;;;20.59;100.00;99567.28;5055478;28;19932;-63
2021/06/09 03:03:15;;;;;;;;;;;;;;;20.53;100.00;99565.03;5034779;28;19920;-63
2021/06/09 03:05:43;;;;;;;;;;;;;;;20.48;100.00;99563.56;5057137;28;19913;-63
2021/06/09 03:08:15;;;;;;;;;;;;;;;20.35;100.00;99567.88;5050626;28;19931;-63
2021/06/09 03:10:50;;;;;;;;;;;;;;;20.21;100.00;99560.06;5027693;28;19913;-63
2021/06/09 03:13:20;;;;;;;;;;;;;;;19.94;100.00;99560.03;5054088;28;19974;-63
2021/06/09 03:15:48;;;;;;;;;;;;;;;19.68;100.00;99567.63;5048039;28;20058;-63
2021/06/09 03:18:46;;;;;;;;;;;;;;;20.26;100.00;99556.22;5032998;28;19947;-63
2021/06/09 03:21:16;;;;;;;;;;;;;;;20.37;100.00;99562.56;4996368;28;19964;-64
2021/06/09 03:24:00;;;;;;;;;;;;;;;20.38;100.00;99559.81;5040680;28;19967;-64
2021/06/09 03:26:55;;;;;;;;;;;;;;;20.33;100.00;99572.38;5056128;28;20133;-64
2021/06/09 03:29:40;;;;;;;;;;;;;;;20.23;100.00;99571.25;5029508;28;19980;-64
2021/06/09 03:32:13;;;;;;;;;;;;;;;20.47;100.00;99567.09;5037572;28;20452;-64
2021/06/09 03:34:57;;;;;;;;;;;;;;;20.35;100.00;99561.81;5032329;28;19918;-63
2021/06/09 03:37:22;;;;;;;;;;;;;;;20.24;100.00;99555.47;5054563;28;19939;-63
2021/06/09 03:39:50;;;;;;;;;;;;;;;19.57;100.00;99557.84;5013651;28;19925;-64
2021/06/09 03:42:17;;;;;;;;;;;;;;;19.20;100.00;99560.03;5034592;28;19920;-63
2021/06/09 03:44:48;;;;;;;;;;;;;;;19.17;100.00;99557.59;5057555;28;20341;-63
2021/06/09 03:47:13;;;;;;;;;;;;;;;19.71;100.00;99557.03;5029701;28;20040;-63
2021/06/09 03:49:39;;;;;;;;;;;;;;;20.11;100.00;99554.56;5041682;28;20003;-63
2021/06/09 03:52:04;;;;;;;;;;;;;;;20.32;100.00;99560.25;5038419;28;19963;-63
2021/06/09 03:54:32;;;;;;;;;;;;;;;20.32;100.00;99565.47;5056453;28;19920;-63
2021/06/09 03:56:58;;;;;;;;;;;;;;;20.26;100.00;99561.44;5041731;28;19920;-64
2021/06/09 03:59:23;;;;;;;;;;;;;;;20.19;100.00;99554.09;5037148;28;19926;-63
2021/06/09 04:01:49;;;;;;;;;;;;;;;20.15;100.00;99553.44;4991788;28;19932;-64
2021/06/09 04:04:18;;;;;;;;;;;;;;;20.13;100.00;99549.25;4991820;28;20011;-63
2021/06/09 04:06:44;;;;;;;;;;;;;;;20.23;100.00;99548.56;5010491;28;20422;-64
2021/06/09 04:09:09;;;;;;;;;;;;;;;20.35;100.00;99552.19;5008922;28;19968;-64
2021/06/09 04:11:35;;;;;;;;;;;;;;;20.08;100.00;99546.91;4992064;28;19913;-64
2021/06/09 04:14:00;;;;;;;;;;;;;;;20.00;100.00;99557.00;5009339;28;20051;-64
2021/06/09 04:16:26;;;;;;;;;;;;;;;20.24;100.00;99552.84;4991141;28;19921;-64
2021/06/09 04:18:52;;;;;;;;;;;;;;;20.66;100.00;99555.47;5008856;28;19932;-64
2021/06/09 04:21:17;;;;;;;;;;;;;;;20.77;100.00;99550.38;4992120;28;19925;-63
2021/06/09 04:23:42;;;;;;;;;;;;;;;20.83;100.00;99552.59;5010427;28;19952;-63
2021/06/09 04:26:09;;;;;;;;;;;;;;;20.67;100.00;99550.16;4992044;28;19927;-64
2021/06/09 04:28:34;;;;;;;;;;;;;;;20.79;100.00;99552.91;5009166;28;19917;-64
2021/06/09 04:30:59;;;;;;;;;;;;;;;20.92;100.00;99555.56;4992309;28;19920;-63
2021/06/09 04:33:28;;;;;;;;;;;;;;;21.07;100.00;99551.91;4990899;28;19922;-64
2021/06/09 04:35:54;;;;;;;;;;;;;;;21.18;100.00;99559.06;5010589;28;19918;-63
2021/06/09 04:38:19;;;;;;;;;;;;;;;21.58;100.00;99552.00;5008278;28;19918;-64
2021/06/09 04:40:45;;;;;;;;;;;;;;;21.74;100.00;99550.94;5009479;28;19918;-64
2021/06/09 04:43:11;;;;;;;;;;;;;;;21.20;100.00;99557.19;5007886;28;19965;-64
2021/06/09 04:45:36;;;;;;;;;;;;;;;21.13;100.00;99554.13;4988817;28;20456;-63
2021/06/09 04:48:02;;;;;;;;;;;;;;;21.55;100.00;99552.19;5006040;28;20478;-63
2021/06/09 04:50:28;;;;;;;;;;;;;;;21.58;100.00;99552.00;5008693;28;20382;-63
2021/06/09 04:52:53;;;;;;;;;;;;;;;21.51;100.00;99556.81;5009483;28;19913;-63
2021/06/09 04:55:19;;;;;;;;;;;;;;;21.39;100.00;99559.38;5007905;28;19921;-63
2021/06/09 04:57:44;;;;;;;;;;;;;;;21.82;100.00;99551.22;4989629;28;19917;-63
2021/06/09 05:00:11;;;;;;;;;;;;;;;21.97;100.00;99557.19;5042123;28;19928;-63
2021/06/09 05:02:36;;;;;;;;;;;;;;;21.88;100.00;99556.03;5050087;28;19912;-63
2021/06/09 05:05:03;;;;;;;;;;;;;;;21.93;100.00;99557.38;5050860;28;19917;-63
2021/06/09 05:07:28;;;;;;;;;;;;;;;21.86;100.00;99558.75;5021963;28;19916;-63
2021/06/09 05:09:55;;;;;;;;;;;;;;;21.81;100.00;99557.44;5029454;28;20022;-63
2021/06/09 05:12:22;;;;;;;;;;;;;;;21.97;100.00;99557.19;5051193;28;19916;-63
2021/06/09 05:14:49;;;;;;;;;;;;;;;21.82;100.00;99552.06;5047056;28;19939;-63
2021/06/09 05:17:17;;;;;;;;;;;;;;;21.84;100.00;99551.97;5017055;28;19979;-63
2021/06/09 05:19:44;;;;;;;;;;;;;;;21.68;100.00;99552.19;5028899;28;19916;-63
2021/06/09 05:22:30;;;;;;;;;;;;;;;21.50;100.00;99554.28;5032767;28;19956;-64
2021/06/09 05:24:55;;;;;;;;;;;;;;;21.76;100.00;99551.63;5028430;28;19912;-64
2021/06/09 05:27:21;;;;;;;;;;;;;;;21.97;100.00;99549.31;5036783;28;19923;-64
2021/06/09 05:29:46;;;;;;;;;;;;;;;22.19;100.00;99546.00;5052591;28;19928;-65
2021/06/09 05:32:12;;;;;;;;;;;;;;;22.45;100.00;99545.00;5030927;28;19913;-65
2021/06/09 05:34:38;;;;;;;;;;;;;;;22.57;100.00;99542.44;5053795;28;19924;-64
2021/06/09 05:37:03;;;;;;;;;;;;;;;22.73;100.00;99549.06;5054006;28;19916;-64
2021/06/09 05:39:28;;;;;;;;;;;;;;;22.61;100.00;99549.13;5058778;28;19923;-64
2021/06/09 05:41:54;;;;;;;;;;;;;;;22.74;100.00;99553.38;5035540;28;19913;-65
2021/06/09 05:44:19;;;;;;;;;;;;;;;22.97;100.00;99546.41;5054200;28;19921;-65
2021/06/09 05:46:46;;;;;;;;;;;;;;;22.95;100.00;99556.19;5051921;28;19913;-64
2021/06/09 05:49:23;;;;;;;;;;;;;;;22.97;100.00;99554.28;5054594;28;19966;-64
2021/06/09 05:51:49;;;;;;;;;;;;;;;23.55;100.00;99542.97;5055203;28;19936;-65
2021/06/09 05:54:15;;;;;;;;;;;;;;;23.13;100.00;99558.44;5056168;28;19921;-64
2021/06/09 05:56:40;;;;;;;;;;;;;;;23.20;100.00;99558.81;5037625;28;19942;-64
2021/06/09 05:59:05;;;;;;;;;;;;;;;23.54;100.00;99554.44;5037085;28;19925;-64
2021/06/09 06:01:31;;;;;;;;;;;;;;;23.65;100.00;99549.19;5061147;28;19939;-64
2021/06/09 06:03:57;;;;;;;;;;;;;;;23.73;100.00;99549.41;5051203;28;20144;-64
2021/06/09 06:06:22;;;;;;;;;;;;;;;23.91;97.56;99546.34;5036718;28;19920;-64
2021/06/09 06:08:47;;;;;;;;;;;;;;;23.99;98.65;99552.69;5042436;28;19931;-64
2021/06/09 06:11:14;;;;;;;;;;;;;;;24.18;97.35;99551.22;5037078;28;19917;-64
2021/06/09 06:13:40;;;;;;;;;;;;;;;24.37;96.71;99550.56;5049036;28;19923;-64
2021/06/09 06:16:05;;;;;;;;;;;;;;;24.36;98.30;99554.16;5052484;28;20536;-64
2021/06/09 06:18:35;;;;;;;;;;;;;;;24.04;100.00;99554.94;5052608;28;19927;-64
2021/06/09 06:21:00;;;;;;;;;;;;;;;23.76;100.00;99557.09;5053752;28;19974;-64
2021/06/09 06:23:26;;;;;;;;;;;;;;;23.25;100.00;99557.50;5052284;28;20459;-64
2021/06/09 06:25:52;;;;;;;;;;;;;;;21.63;100.00;99563.00;5050493;28;20568;-64
2021/06/09 06:28:17;;;;;;;;;;;;;;;23.10;100.00;99566.53;5028830;28;20026;-64
2021/06/09 06:30:43;;;;;;;;;;;;;;;24.11;100.00;99566.66;5027080;28;20007;-64
2021/06/09 06:33:08;;;;;;;;;;;;;;;23.04;100.00;99564.38;5056505;28;19917;-64
2021/06/09 06:35:33;;;;;;;;;;;;;;;23.03;100.00;99557.44;5033701;28;19916;-64
2021/06/09 06:37:59;;;;;;;;;;;;;;;24.06;100.00;99549.53;5036962;28;20452;-64
2021/06/09 06:40:27;;;;;;;;;;;;;;;25.00;96.14;99554.19;5036354;28;19916;-64
2021/06/09 06:42:53;;;;;;;;;;;;;;;22.87;100.00;99557.72;5056351;28;19919;-64
2021/06/09 06:45:18;;;;;;;;;;;;;;;21.89;100.00;99555.91;5056215;28;19916;-64
2021/06/09 06:47:44;;;;;;;;;;;;;;;23.06;100.00;99562.44;5015833;28;20036;-65
2021/06/09 06:50:10;;;;;;;;;;;;;;;22.47;100.00;99561.47;5038172;28;19917;-65
2021/06/09 06:52:36;;;;;;;;;;;;;;;22.64;100.00;99562.84;5054156;28;20405;-65
2021/06/09 06:55:02;;;;;;;;;;;;;;;22.58;100.00;99562.47;5037138;28;19944;-64
2021/06/09 06:57:31;;;;;;;;;;;;;;;23.17;100.00;99559.84;5059127;28;19999;-64
2021/06/09 07:00:00;;;;;;;;;;;;;;;23.47;100.00;99555.84;5055415;28;19966;-64
2021/06/09 07:02:25;;;;;;;;;;;;;;;25.33;94.41;99564.69;5056874;28;19917;-64
2021/06/09 07:04:51;;;;;;;;;;;;;;;24.30;100.00;99560.75;5056209;28;20593;-64
2021/06/09 07:07:16;;;;;;;;;;;;;;;25.17;94.87;99563.31;5060062;28;20300;-64
2021/06/09 07:09:42;;;;;;;;;;;;;;;25.58;89.27;99569.53;5039427;28;19970;-64
2021/06/09 07:12:07;;;;;;;;;;;;;;;23.82;95.28;99570.75;5041134;28;19917;-61
2021/06/09 07:14:33;;;;;;;;;;;;;;;25.14;93.59;99570.66;5057494;28;19920;-56
2021/06/09 07:16:58;;;;;;;;;;;;;;;23.52;100.00;99574.75;5019114;28;20402;-54
2021/06/09 07:19:23;;;;;;;;;;;;;;;23.96;100.00;99562.59;5056705;28;19919;-54
2021/06/09 07:21:49;;;;;;;;;;;;;;;23.20;100.00;99574.56;5038171;28;20380;-55
2021/06/09 07:24:15;;;;;;;;;;;;;;;24.42;98.15;99569.44;5058199;28;19927;-57
2021/06/09 07:26:41;;;;;;;;;;;;;;;25.44;93.62;99573.34;5035885;28;19912;-56
2021/06/09 07:29:06;;;;;;;;;;;;;;;26.37;81.69;99571.53;5057074;28;20733;-57
2021/06/09 07:31:33;;;;;;;;;;;;;;;26.40;80.43;99565.13;5056973;28;19924;-55
2021/06/09 07:33:58;;;;;;;;;;;;;;;23.51;99.98;99573.91;5057123;28;19921;-64
2021/06/09 07:36:24;;;;;;;;;;;;;;;24.78;91.24;99564.81;5047640;28;19916;-64
2021/06/09 07:38:50;;;;;;;;;;;;;;;26.03;86.86;99568.38;5037948;28;19951;-64
2021/06/09 07:41:16;;;;;;;;;;;;;;;27.03;79.66;99570.88;5040437;28;20293;-64
2021/06/09 07:43:42;;;;;;;;;;;;;;;26.49;77.97;99569.59;5056617;28;20011;-64
2021/06/09 07:46:08;;;;;;;;;;;;;;;26.62;71.22;99566.72;5038447;28;19931;-64
2021/06/09 07:48:34;;;;;;;;;;;;;;;27.29;72.99;99567.66;5038518;28;19920;-64
2021/06/09 07:51:05;;;;;;;;;;;;;;;27.01;76.55;99572.84;5041045;28;19916;-64
2021/06/09 07:53:30;;;;;;;;;;;;;;;25.82;84.81;99571.88;5034182;28;19917;-64
2021/06/09 07:55:56;;;;;;;;;;;;;;;25.41;88.24;99563.09;5060512;28;20372;-64
2021/06/09 07:58:22;;;;;;;;;;;;;;;26.84;79.94;99573.53;5040471;28;19917;-64
2021/06/09 08:00:48;;;;;;;;;;;;;;;27.52;77.71;99569.00;5057861;28;19931;-64
2021/06/09 08:03:13;;;;;;;;;;;;;;;25.32;96.00;99571.78;5040891;28;20462;-64
2021/06/09 08:05:40;;;;;;;;;;;;;;;25.05;100.00;99565.19;5054429;28;19938;-64
2021/06/09 08:08:06;;;;;;;;;;;;;;;24.34;100.00;99571.88;5057851;28;20026;-64
2021/06/09 08:10:32;;;;;;;;;;;;;;;24.54;98.20;99576.41;5058899;28;20004;-65
2021/06/09 08:12:57;;;;;;;;;;;;;;;22.67;100.00;99583.66;5054250;28;19919;-64
2021/06/09 08:15:23;;;;;;;;;;;;;;;23.53;100.00;99581.66;5037836;28;20423;-64
2021/06/09 08:17:48;;;;;;;;;;;;;;;26.26;84.33;99572.47;5058681;28;19917;-64
2021/06/09 08:20:15;;;;;;;;;;;;;;;25.37;87.71;99577.50;5057594;28;20318;-64
2021/06/09 08:22:41;;;;;;;;;;;;;;;25.21;90.40;99577.94;5056478;28;19917;-64
2021/06/09 08:25:07;;;;;;;;;;;;;;;25.37;90.87;99576.66;5053505;28;19921;-64
2021/06/09 08:27:32;;;;;;;;;;;;;;;24.48;100.00;99573.44;5034640;28;20042;-64
2021/06/09 08:29:57;;;;;;;;;;;;;;;24.55;90.47;99580.72;5037675;28;20373;-64
2021/06/09 08:32:23;;;;;;;;;;;;;;;23.93;100.00;99573.38;5032624;28;19921;-64
2021/06/09 08:34:48;;;;;;;;;;;;;;;24.51;100.00;99574.00;5056462;28;19923;-64
2021/06/09 08:37:14;;;;;;;;;;;;;;;25.13;99.31;99574.25;5056806;28;19921;-63
2021/06/09 08:39:39;;;;;;;;;;;;;;;25.87;90.70;99569.72;5059063;28;20334;-64
2021/06/09 08:42:06;;;;;;;;;;;;;;;25.46;95.41;99571.44;5057380;28;19998;-65
2021/06/09 08:44:34;;;;;;;;;;;;;;;25.55;96.10;99579.53;5056006;28;19927;-64
2021/06/09 08:47:00;;;;;;;;;;;;;;;26.89;83.24;99579.22;5054582;28;19958;-65
2021/06/09 08:49:26;;;;;;;;;;;;;;;25.16;85.60;99579.28;5037711;28;20376;-64
2021/06/09 08:51:52;;;;;;;;;;;;;;;24.68;100.00;99571.78;5055928;28;20015;-64
2021/06/09 08:54:18;;;;;;;;;;;;;;;24.57;100.00;99575.31;5055456;28;20285;-65
2021/06/09 08:56:43;;;;;;;;;;;;;;;24.00;100.00;99574.56;5038923;28;19916;-64
2021/06/09 08:59:08;;;;;;;;;;;;;;;24.23;100.00;99569.28;5037808;28;19966;-65
2021/06/09 09:01:34;;;;;;;;;;;;;;;24.69;100.00;99576.13;5056289;28;19913;-64
2021/06/09 09:04:00;;;;;;;;;;;;;;;24.54;98.33;99573.78;5055737;28;19916;-64
2021/06/09 09:06:25;;;;;;;;;;;;;;;25.38;100.00;99570.41;5053032;28;19974;-64
2021/06/09 09:08:54;;;;;;;;;;;;;;;25.77;99.31;99579.38;5056055;28;19916;-64
2021/06/09 09:11:20;;;;;;;;;;;;;;;25.59;100.00;99578.28;5040384;28;20004;-64
2021/06/09 09:13:45;;;;;;;;;;;;;;;25.52;95.83;99570.09;5057950;28;19921;-64
2021/06/09 09:16:11;;;;;;;;;;;;;;;25.38;88.81;99579.16;5052760;28;19970;-64
2021/06/09 09:18:41;;;;;;;;;;;;;;;27.75;86.38;99576.59;5038315;28;20284;-64
2021/06/09 09:21:06;;;;;;;;;;;;;;;26.06;93.25;99568.94;5037523;28;20332;-65
2021/06/09 09:23:32;;;;;;;;;;;;;;;25.91;94.42;99580.84;5034987;28;19912;-64
2021/06/09 09:25:59;;;;;;;;;;;;;;;26.03;91.20;99585.06;5055055;28;19982;-64
2021/06/09 09:28:34;;;;;;;;;;;;;;;26.04;89.97;99580.59;5058378;28;20285;-64
2021/06/09 09:31:09;;;;;;;;;;;;;;;25.41;90.70;99589.44;5055260;28;20443;-64
2021/06/09 09:33:35;;;;;;;;;;;;;;;24.43;85.83;99598.31;5054077;28;20537;-64
2021/06/09 09:36:01;;;;;;;;;;;;;;;25.58;88.22;99592.47;5056792;28;19963;-64
2021/06/09 09:38:30;;;;;;;;;;;;;;;24.94;96.14;99591.56;5034541;28;19928;-64
2021/06/09 09:41:00;;;;;;;;;;;;;;;25.22;93.13;99589.31;5054916;28;19916;-64
2021/06/09 09:43:44;;;;;;;;;;;;;;;26.16;79.38;99591.88;5055697;28;20055;-64
2021/06/09 09:46:11;;;;;;;;;;;;;;;25.74;93.25;99599.91;5053634;28;19923;-64
2021/06/09 09:48:38;;;;;;;;;;;;;;;26.48;87.96;99599.63;5053216;28;19927;-64
2021/06/09 09:51:04;;;;;;;;;;;;;;;24.60;83.26;99593.50;5039142;28;20389;-64
2021/06/09 09:53:32;;;;;;;;;;;;;;;25.49;89.80;99606.41;5055753;28;19916;-64
2021/06/09 09:56:08;;;;;;;;;;;;;;;24.83;79.28;99604.78;5030994;28;19916;-64
2021/06/09 09:58:35;;;;;;;;;;;;;;;26.94;84.23;99605.22;5039327;28;19916;-64
2021/06/09 10:01:23;;;;;;;;;;;;;;;27.07;80.83;99609.28;5035935;28;19923;-64
2021/06/09 10:03:50;;;;;;;;;;;;;;;25.12;91.45;99604.22;5045581;28;20384;-64
2021/06/09 10:06:16;;;;;;;;;;;;;;;25.60;90.35;99604.53;5037777;28;20038;-63
2021/06/09 10:08:41;;;;;;;;;;;;;;;26.81;75.70;99608.16;5054273;28;19970;-64
2021/06/09 10:11:13;;;;;;;;;;;;;;;29.14;64.15;99604.63;5055429;28;19916;-64
2021/06/09 10:13:39;;;;;;;;;;;;;;;28.09;72.47;99608.66;5036179;28;20015;-64
2021/06/09 10:16:31;;;;;;;;;;;;;;;26.39;80.38;99603.06;5055063;28;20098;-64
2021/06/09 10:18:58;;;;;;;;;;;;;;;26.91;76.84;99606.34;5051552;28;20329;-64
2021/06/09 10:21:23;;;;;;;;;;;;;;;26.44;70.33;99608.78;5036184;28;20392;-64
2021/06/09 10:23:48;;;;;;;;;;;;;;;25.64;71.01;99605.13;5035708;28;19917;-64
2021/06/09 10:26:15;;;;;;;;;;;;;;;26.49;81.42;99596.00;5056832;28;19992;-64
2021/06/09 10:28:59;;;;;;;;;;;;;;;28.37;74.46;99598.03;5055596;28;19919;-64
2021/06/09 10:31:25;;;;;;;;;;;;;;;27.62;78.21;99594.59;5058771;28;19916;-64
2021/06/09 10:33:50;;;;;;;;;;;;;;;27.01;80.88;99607.19;5053522;28;19924;-64
2021/06/09 10:36:16;;;;;;;;;;;;;;;26.93;78.16;99601.75;5034420;28;19920;-64
2021/06/09 10:38:43;;;;;;;;;;;;;;;27.72;81.78;99588.28;5054953;28;20387;-63
2021/06/09 10:41:09;;;;;;;;;;;;;;;30.26;56.08;99589.66;5032548;28;20015;-64
2021/06/09 10:43:34;;;;;;;;;;;;;;;27.45;71.11;99591.72;5037638;28;20057;-64
2021/06/09 10:45:59;;;;;;;;;;;;;;;28.33;62.70;99594.88;5059628;28;19944;-64
2021/06/09 10:48:25;;;;;;;;;;;;;;;30.85;51.69;99590.50;5034453;28;19973;-64
2021/06/09 10:50:52;;;;;;;;;;;;;;;28.93;69.57;99588.19;5032040;28;19935;-64
2021/06/09 10:53:17;;;;;;;;;;;;;;;28.41;72.39;99590.63;5021054;28;19916;-63
2021/06/09 10:55:43;;;;;;;;;;;;;;;26.29;72.05;99590.66;5035539;28;19917;-64
2021/06/09 10:58:08;;;;;;;;;;;;;;;25.93;71.33;99588.63;5034256;28;19958;-64
2021/06/09 11:00:34;;;;;;;;;;;;;;;25.65;72.95;99591.78;5056739;28;19924;-64
2021/06/09 11:02:59;;;;;;;;;;;;;;;26.35;80.83;99591.13;5033697;28;19916;-64
2021/06/09 11:05:25;;;;;;;;;;;;;;;26.50;79.12;99587.09;5052161;28;20014;-64
2021/06/09 11:07:53;;;;;;;;;;;;;;;25.36;76.70;99588.16;5035469;28;20419;-63
2021/06/09 11:10:31;;;;;;;;;;;;;;;25.89;73.74;99582.78;5035219;28;19917;-63
2021/06/09 11:12:57;;;;;;;;;;;;;;;28.69;71.08;99583.50;5052947;28;19920;-64
2021/06/09 11:15:23;;;;;;;;;;;;;;;30.78;57.05;99581.50;5056138;28;20438;-64
2021/06/09 11:17:53;;;;;;;;;;;;;;;27.16;70.64;99593.53;5054873;28;19916;-64
2021/06/09 11:20:21;;;;;;;;;;;;;;;30.21;54.76;99586.66;5035236;28;20020;-64
2021/06/09 11:22:49;;;;;;;;;;;;;;;27.85;69.85;99587.16;5051515;28;19938;-64
2021/06/09 11:25:22;;;;;;;;;;;;;;;27.69;70.27;99585.13;5035467;28;20062;-64
2021/06/09 11:27:56;;;;;;;;;;;;;;;30.38;58.24;99572.47;5049838;28;20043;-64
2021/06/09 11:30:25;;;;;;;;;;;;;;;28.23;63.57;99578.19;5037411;28;19998;-63
2021/06/09 11:32:54;;;;;;;;;;;;;;;30.07;72.87;99574.84;5037516;28;20388;-65
2021/06/09 11:35:24;;;;;;;;;;;;;;;29.78;58.67;99575.22;5053817;28;20962;-65
2021/06/09 11:38:08;;;;;;;;;;;;;;;30.03;65.30;99566.34;5053691;28;20840;-64
2021/06/09 11:41:09;;;;;;;;;;;;;;;28.16;67.81;99569.16;5053456;28;19917;-64
2021/06/09 11:43:37;;;;;;;;;;;;;;;30.24;60.14;99565.06;4977699;28;19961;-64
2021/06/09 11:46:06;;;;;;;;;;;;;;;32.43;56.81;99558.81;5043569;28;19994;-64
2021/06/09 11:48:32;;;;;;;;;;;;;;;28.77;67.25;99552.59;5058696;28;19917;-64
2021/06/09 11:51:17;;;;;;;;;;;;;;;32.57;55.19;99553.72;5041450;28;19917;-64
2021/06/09 11:53:43;;;;;;;;;;;;;;;30.65;63.30;99551.88;5055517;28;20283;-64
2021/06/09 11:56:23;;;;;;;;;;;;;;;30.40;63.29;99549.22;5058639;28;20964;-64
2021/06/09 11:58:50;;;;;;;;;;;;;;;31.73;47.13;99548.16;5058524;28;19925;-64
2021/06/09 12:01:16;;;;;;;;;;;;;;;28.53;55.42;99547.91;5038290;28;19925;-64
2021/06/09 12:03:42;;;;;;;;;;;;;;;27.31;63.90;99555.97;5056863;28;19913;-64
2021/06/09 12:06:15;;;;;;;;;;;;;;;27.79;79.55;99546.19;5033145;28;20345;-64
2021/06/09 12:08:43;;;;;;;;;;;;;;;31.90;61.29;99533.75;5036479;28;19916;-64
2021/06/09 12:11:08;;;;;;;;;;;;;;;31.74;50.83;99536.50;5054581;28;19916;-64
2021/06/09 12:13:34;;;;;;;;;;;;;;;30.32;61.39;99535.91;5054607;28;19919;-64
2021/06/09 12:16:02;;;;;;;;;;;;;;;32.88;53.85;99541.13;5021823;28;20015;-64
2021/06/09 12:18:28;;;;;;;;;;;;;;;34.57;41.25;99541.34;5057707;28;19921;-64
2021/06/09 12:21:00;;;;;;;;;;;;;;;29.29;55.32;99537.78;5058856;28;19928;-64
2021/06/09 12:23:26;;;;;;;;;;;;;;;29.97;60.09;99534.28;5055441;28;19927;-64
2021/06/09 12:25:51;;;;;;;;;;;;;;;31.18;52.95;99531.97;5054878;28;19916;-64
2021/06/09 12:28:17;;;;;;;;;;;;;;;32.82;52.76;99528.53;5056042;28;19923;-64
2021/06/09 12:30:43;;;;;;;;;;;;;;;30.76;52.10;99538.28;5057284;28;19917;-64
2021/06/09 12:33:09;;;;;;;;;;;;;;;30.17;49.31;99534.84;5056141;28;19920;-64
2021/06/09 12:35:34;;;;;;;;;;;;;;;28.78;53.34;99533.06;5055833;28;20378;-64
2021/06/09 12:38:01;;;;;;;;;;;;;;;30.08;61.23;99535.81;5056424;28;19916;-64
2021/06/09 12:40:27;;;;;;;;;;;;;;;29.10;54.83;99529.03;5054389;28;19974;-64